Terminal Aerodrome Forecast
Issued by NWS Melbourne, FL

Home | Current Version | Previous Version | Text Only | Print | Product List | Glossary On
Versions: 1 2 3 4 5 6 7 8 9 10 11 12 13 14
000
FTUS42 KMLB 231700
TAFVRB
TAF
KVRB 231739Z 2318/2418 10010KT P6SM FEW040
     FM240200 VRB02KT P6SM SKC
     FM241400 12008KT P6SM FEW040=

USA.gov is the U.S. government's official web portal to all federal, state and local government web resources and services.